• Join FlightAware (Why Join?)
  • Login
  • US Flag 
03:57AM EDT


 

Airport Tracker/Info


-or-


 

Live Flight TrackerFlight Track Log ✈ 9Y-BGI ✈ 12-Apr-2013 ✈ KJFK - MKJS / MBJ

Flight Track Log - Related Links

Times and Time Zones

All times are in EDT time to prevent confusion due to time zone crossing. See the 9Y-BGI flight status page for this flight to view local times or setup timezone preferences in your user account.

Time Position Orientation Groundspeed Altitude Reporting Facility
EDT Latitude Longitude Course Direction KTS MPH feet Rate Location/Type
06:26AM 40.6667 -73.7167 146° Southeast 193 222 2,900  Level New York TRACON
06:27AM 40.6833 -73.6333 75° East 265 305 4,400 1,920 Climbing New York TRACON
06:28AM 40.6333 -73.5500 128° Southeast 272 313 6,800 2,220 Climbing New York TRACON
06:30AM 40.5178 -73.4928 159° South 286 329 10,800 1,920 Climbing New York Center
06:31AM 40.4186 -73.4561 164° South 328 377 12,400 1,920 Climbing New York Center
06:32AM 40.0991 -73.2640 146° Southeast  Level FlightAware Approximate
06:32AM 40.3208 -73.4578 181° South 352 405 14,700  Level New York Center
06:33AM 40.2261 -73.4894 194° South 352 405 17,000 1,980 Climbing New York Center
06:34AM 40.1236 -73.5153 191° South 364 419 18,800 1,740 Climbing New York Center
06:36AM 39.9050 -73.5792 193° South 389 448 22,500 1,620 Climbing Washington Center
06:37AM 39.7931 -73.6119 193° South 399 459 23,900 1,380 Climbing Washington Center
06:38AM 39.7047 -73.6981 217° Southwest 394 453 25,300 1,380 Climbing Washington Center
06:39AM 39.6167 -73.7947 220° Southwest 406 467 26,700 1,140 Climbing Washington Center
06:40AM 39.5244 -73.8939 220° Southwest 422 486 27,600 1,140 Climbing Washington Center
06:41AM 39.4319 -73.9928 220° Southwest 428 493 29,000 1,500 Climbing Washington Center
06:42AM 39.3394 -74.0942 220° Southwest 434 499 30,600 1,860 Climbing Washington Center
06:43AM 39.2511 -74.1925 221° Southwest 428 493 32,800 1,560 Climbing Washington Center
06:44AM 39.1644 -74.2853 220° Southwest 423 487 33,800 900 Climbing Washington Center
06:45AM 39.0758 -74.3803 220° Southwest 423 487 34,600 960 Climbing Washington Center
06:46AM 38.9744 -74.4436 206° Southwest 417 480 35,800 660 Climbing Washington Center
06:47AM 38.8686 -74.4958 201° Southwest 407 468 36,000 60 Climbing Washington Center
06:48AM 38.7586 -74.5453 199° South 413 475 36,000  Level Washington Center
06:49AM 38.6506 -74.6028 203° Southwest 413 475 36,000  Level Washington Center
06:50AM 38.5406 -74.6519 199° South 418 481 36,000  Level Washington Center
06:51AM 38.4325 -74.7039 201° Southwest 418 481 36,000  Level Washington Center
06:52AM 38.3225 -74.7581 201° Southwest 418 481 36,000  Level Washington Center
06:53AM 38.2081 -74.8147 201° Southwest 413 475 36,000  Level Washington Center
06:54AM 38.1000 -74.8633 199° South 413 475 36,000  Level Washington Center
06:55AM 37.9897 -74.9119 199° South 407 468 36,000  Level Washington Center
06:56AM 37.8858 -74.9631 201° Southwest 407 468 36,000  Level Washington Center
06:57AM 37.7775 -75.0139 200° South 407 468 36,000  Level Washington Center
06:58AM 37.6714 -75.0592 199° South 407 468 36,000  Level Washington Center
06:59AM 37.5631 -75.1097 200° South 407 468 36,000  Level Washington Center
07:00AM 37.4569 -75.1575 200° South 407 468 36,000  Level Washington Center
07:01AM 37.3467 -75.2078 200° South 407 468 36,000  Level Washington Center
07:02AM 37.2403 -75.2553 200° South 407 468 36,000  Level Washington Center
07:03AM 37.1342 -75.3028 200° South 407 468 36,000  Level Washington Center
07:04AM 37.0258 -75.3525 200° South 407 468 36,000  Level Washington Center
07:05AM 36.9172 -75.3997 199° South 407 468 36,000  Level Washington Center
07:06AM 36.8089 -75.4467 199° South 407 468 36,000  Level Washington Center
07:07AM 36.7006 -75.4961 200° South 407 468 36,000  Level Washington Center
07:08AM 36.6128 -75.5350 200° South 412 474 36,000  Level Washington Center
07:09AM 36.4939 -75.5869 199° South 412 474 36,000  Level Washington Center
07:10AM 36.3856 -75.6358 200° South 412 474 36,000  Level Washington Center
07:11AM 36.2769 -75.6872 201° Southwest 412 474 36,000  Level Washington Center
07:12AM 36.1683 -75.7308 198° South 412 474 36,000  Level Washington Center
07:13AM 36.0600 -75.7797 200° South 412 474 36,000  Level Washington Center
07:14AM 35.9514 -75.8281 200° South 412 474 36,000  Level Washington Center
07:15AM 35.8428 -75.8739 199° South 412 474 36,000  Level Washington Center
07:16AM 35.7361 -75.9222 200° South 412 474 36,000  Level Washington Center
07:17AM 35.6297 -75.9653 198° South 412 474 36,000  Level Washington Center
07:18AM 35.5211 -76.0131 200° South 407 468 36,000  Level Washington Center
07:19AM 35.4164 -76.0586 200° South 407 468 36,000  Level Washington Center
07:20AM 35.3058 -76.1036 198° South 407 468 36,000  Level Washington Center
07:21AM 35.1992 -76.1514 200° South 407 468 36,000  Level Washington Center
07:22AM 35.0819 -76.2089 202° Southwest 407 468 36,000  Level Washington Center
07:23AM 34.9733 -76.2536 199° South 412 474 36,000  Level Washington Center
07:24AM 34.8644 -76.3008 200° South 412 474 36,000  Level Washington Center
07:25AM 34.7558 -76.3456 199° South 412 474 36,000  Level Washington Center
07:26AM 34.6469 -76.3925 200° South 407 468 36,000  Level Washington Center
07:27AM 34.5381 -76.4342 197° South 407 468 36,000  Level Washington Center
07:28AM 34.4314 -76.4783 199° South 407 468 36,000  Level Washington Center
07:29AM 34.3289 -76.5253 201° Southwest 407 468 36,000  Level Washington Center
07:30AM 34.2261 -76.5692 199° South 407 468 36,000  Level Washington Center
07:31AM 34.1175 -76.6156 199° South 407 468 36,000  Level Washington Center
07:32AM 34.0086 -76.6594 198° South 407 468 36,000  Level Washington Center
07:33AM 33.9017 -76.7031 199° South 407 468 36,000  Level Washington Center
07:34AM 33.7950 -76.7464 199° South 407 468 36,000  Level Washington Center
07:35AM 33.6881 -76.7925 200° South 407 468 36,000  Level Washington Center
07:36AM 33.5792 -76.8383 199° South 413 475 36,000  Level Washington Center
07:38AM 33.3575 -76.9297 199° South 404 465 36,000  Level Jacksonville Center
07:39AM 33.2489 -76.9744 199° South 409 471 36,000  Level Jacksonville Center
07:40AM 33.1403 -77.0164 198° South 417 480 36,000  Level Jacksonville Center
07:41AM 33.0300 -77.0631 200° South 417 480 36,000  Level Jacksonville Center
07:42AM 32.9233 -77.1072 199° South 417 480 36,000  Level Jacksonville Center
07:43AM 32.8147 -77.1486 198° South 417 480 36,000  Level Jacksonville Center
07:44AM 32.7081 -77.1925 199° South 417 480 36,000  Level Jacksonville Center
07:45AM 32.5994 -77.2364 199° South 417 480 36,000  Level Jacksonville Center
07:46AM 32.4908 -77.2825 200° South 422 486 36,000  Level Jacksonville Center
07:47AM 32.3842 -77.3211 197° South 422 486 36,000  Level Jacksonville Center
07:48AM 32.2775 -77.3669 200° South 417 480 36,000  Level Jacksonville Center
07:49AM 32.1711 -77.4103 199° South 417 480 36,000  Level Jacksonville Center
07:50AM 32.0644 -77.4533 199° South 417 480 36,000  Level Jacksonville Center
07:51AM 31.9594 -77.4914 197° South 411 473 36,000  Level Jacksonville Center
07:52AM 31.8528 -77.5342 199° South 411 473 36,000  Level Jacksonville Center
07:53AM 31.7461 -77.5769 199° South 408 470 36,000  Level Jacksonville Center
07:54AM 31.6436 -77.6194 199° South 402 463 36,000  Level Jacksonville Center
07:55AM 31.5386 -77.6547 196° South 408 470 36,000  Level Jacksonville Center
07:56AM 31.4317 -77.6947 198° South 399 459 36,000  Level Jacksonville Center
07:57AM 31.3228 -77.7372 198° South 408 470 36,000  Level Jacksonville Center
07:58AM 31.2161 -77.7844 201° Southwest 413 475 36,000  Level Jacksonville Center
07:59AM 31.1072 -77.8267 198° South 419 482 36,000  Level Jacksonville Center
08:00AM 30.9981 -77.8642 196° South 419 482 36,000  Level Jacksonville Center
08:01AM 30.8892 -77.9086 199° South 422 486 36,000  Level Jacksonville Center
08:02AM 30.7781 -77.9531 199° South 427 491 36,000  Level Jacksonville Center
08:03AM 30.6672 -77.9953 198° South 420 483 36,000  Level Jacksonville Center
08:04AM 30.5522 -78.0469 201° Southwest 414 476 36,000  Level Jacksonville Center
08:07AM 30.2769 -78.1217 193° South 418 481 36,000  Level Miami Center
08:08AM 30.1619 -78.1394 188° South 437 503 36,000  Level Miami Center
08:09AM 30.0347 -78.1594 188° South 444 511 36,000  Level Miami Center
08:10AM 29.9322 -78.1797 190° South 437 503 36,000  Level Miami Center
08:11AM 29.8133 -78.1997 188° South 442 509 36,000  Level Miami Center
08:12AM 29.6983 -78.2222 190° South 433 498 36,000  Level Miami Center
08:13AM 29.5772 -78.2375 186° South 439 505 36,000  Level Miami Center
08:14AM 29.4542 -78.2575 188° South 439 505 36,000  Level Miami Center
08:15AM 29.3308 -78.2725 186° South 444 511 36,000  Level Miami Center
08:16AM 29.2158 -78.2925 189° South 444 511 36,000  Level Miami Center
08:17AM 29.0906 -78.3122 188° South 449 517 36,000  Level Miami Center
08:18AM 28.9650 -78.3319 188° South 449 517 36,000  Level Miami Center
08:19AM 28.8375 -78.3492 187° South 454 522 36,000  Level Miami Center
08:20AM 28.7142 -78.3711 189° South 454 522 36,000  Level Miami Center
08:21AM 28.5806 -78.3883 186° South 465 535 36,000  Level Miami Center
08:22AM 28.4614 -78.4103 189° South 465 535 36,000  Level Miami Center
08:23AM 28.3339 -78.4275 187° South 465 535 36,000  Level Miami Center
08:24AM 28.2125 -78.4469 188° South 458 527 36,000  Level Miami Center
08:25AM 28.0933 -78.4664 188° South 452 520 36,000  Level Miami Center
08:26AM 27.9700 -78.4833 187° South 446 513 36,000  Level Miami Center
08:27AM 27.8444 -78.5028 188° South 446 513 36,000  Level Miami Center
08:28AM 27.7208 -78.5244 189° South 453 521 36,000  Level Miami Center
08:29AM 27.5956 -78.5414 187° South 448 516 36,000  Level Miami Center
08:30AM 27.4700 -78.5608 188° South 448 516 36,000  Level Miami Center
08:31AM 27.3467 -78.5775 187° South 453 521 36,000  Level Miami Center
08:32AM 27.2208 -78.5992 189° South 458 527 36,000  Level Miami Center
08:33AM 27.0956 -78.6158 187° South 458 527 36,000  Level Miami Center
08:34AM 26.9656 -78.6372 188° South 458 527 36,000  Level Miami Center
08:35AM 26.8442 -78.6564 188° South 458 527 36,000  Level Miami Center
08:36AM 26.7083 -78.6753 187° South 458 527 36,000  Level Miami Center
08:37AM 26.5828 -78.6942 188° South 458 527 36,000  Level Miami Center
08:38AM 26.4592 -78.7131 188° South 458 527 36,000  Level Miami Center
08:39AM 26.3317 -78.7297 187° South 458 527 36,000  Level Miami Center
08:40AM 26.2058 -78.7486 188° South 464 534 36,000  Level Miami Center
08:41AM 26.0761 -78.7675 187° South 464 534 36,000  Level Miami Center
08:42AM 25.9483 -78.7908 189° South 464 534 36,000  Level Miami Center
08:43AM 25.8333 -78.8075 187° South 464 534 36,000  Level Miami Center
08:44AM 25.7078 -78.8261 188° South 469 540 36,000 240 Level Miami Center
08:45AM 25.5778 -78.8447 187° South 463 533 36,500 480 Climbing Miami Center
08:46AM 25.4544 -78.8611 187° South 463 533 37,000 240 Climbing Miami Center
08:47AM 25.3247 -78.8589 179° South 472 543 37,000  Level Miami Center
08:48AM 25.1933 -78.8569 179° South 472 543 37,000  Level Miami Center
08:49AM 25.0594 -78.8569 180° South 480 552 37,000  Level Miami Center
08:50AM 24.9278 -78.8547 179° South 475 547 37,000  Level Miami Center
08:51AM 24.7942 -78.8550 180° South 475 547 37,000  Level Miami Center
08:52AM 24.6625 -78.8528 179° South 475 547 37,000  Level Miami Center
08:53AM 24.5308 -78.8508 179° South 475 547 37,000  Level Miami Center
08:54AM 24.3992 -78.8486 179° South 475 547 37,000  Level Miami Center
08:55AM 24.2719 -78.8467 179° South 475 547 37,000  Level Miami Center
08:56AM 24.1464 -78.8447 179° South 468 539 37,000  Level Miami Center
08:57AM 24.0128 -78.8403 178° South 463 533 37,000  Level Miami Center
08:59AM 23.8184 -78.8309 179° South  Level FlightAware Approximate
09:06AM 23.0102 -78.8201 179° South  Level FlightAware Approximate
09:07AM 22.8947 -78.8186 179° South  Level FlightAware Approximate
09:08AM 22.7792 -78.8170 179° South  Level FlightAware Approximate
09:09AM 22.6638 -78.8147 179° South  Level FlightAware Approximate
09:10AM 22.5483 -78.8122 179° South  Level FlightAware Approximate
09:11AM 22.4329 -78.8096 179° South  Level FlightAware Approximate
09:12AM 22.3174 -78.8070 179° South  Level FlightAware Approximate
09:13AM 22.2020 -78.8045 179° South  Level FlightAware Approximate
09:14AM 22.0865 -78.8019 179° South  Level FlightAware Approximate
09:15AM 21.9711 -78.8020 184° South  Level FlightAware Approximate
09:16AM 21.8559 -78.8102 184° South  Level FlightAware Approximate
09:17AM 21.7407 -78.8184 184° South  Level FlightAware Approximate
09:18AM 21.6255 -78.8265 184° South  Level FlightAware Approximate
09:19AM 21.5103 -78.8346 184° South  Level FlightAware Approximate
09:20AM 21.3950 -78.8428 184° South  Level FlightAware Approximate
09:21AM 21.2798 -78.8509 184° South  Level FlightAware Approximate
09:22AM 21.1646 -78.8590 184° South  Level FlightAware Approximate
09:23AM 21.0494 -78.8671 184° South  Level FlightAware Approximate
09:24AM 20.9341 -78.8751 184° South  Level FlightAware Approximate
09:25AM 20.8189 -78.8832 184° South  Level FlightAware Approximate
09:26AM 20.7034 -78.8833 180° South  Level FlightAware Approximate
09:27AM 20.5881 -78.8867 184° South  Level FlightAware Approximate
09:28AM 20.4729 -78.8952 184° South  Level FlightAware Approximate
09:29AM 20.3577 -78.9038 184° South  Level FlightAware Approximate
09:30AM 20.2425 -78.9123 184° South  Level FlightAware Approximate
09:31AM 20.1271 -78.9167 180° South  Level FlightAware Approximate
09:32AM 20.0127 -78.9312 189° South  Level FlightAware Approximate
09:33AM 19.9177 -78.8694 150° Southeast  Level FlightAware Approximate
09:34AM 19.8187 -78.8062 146° Southeast  Level FlightAware Approximate
09:35AM 19.7229 -78.7377 146° Southeast  Level FlightAware Approximate
09:36AM 19.6271 -78.6693 146° Southeast  Level FlightAware Approximate
09:37AM 19.5295 -78.6038 148° Southeast  Level FlightAware Approximate
09:38AM 19.4312 -78.5394 148° Southeast  Level FlightAware Approximate
09:39AM 19.3329 -78.4752 148° Southeast  Level FlightAware Approximate
09:40AM 19.2346 -78.4110 148° Southeast  Level FlightAware Approximate
09:41AM 19.1365 -78.3465 148° Southeast  Level FlightAware Approximate
09:42AM 19.0388 -78.2814 148° Southeast  Level FlightAware Approximate
09:43AM 18.9401 -78.2179 149° Southeast  Level FlightAware Approximate
09:44AM 18.8412 -78.1550 149° Southeast  Level FlightAware Approximate
09:45AM 18.7467 -78.0850 145° Southeast  Level FlightAware Approximate
09:46AM 18.6508 -78.0172 148° Southeast  Level FlightAware Approximate
09:47AM 18.5482 -77.9649 137° Southeast  Level FlightAware Approximate
09:48AM 18.5037 -77.9134 90° East  Level Estimated
09:49AM 18.5037 -77.9134 90° East  Level Estimated
09:50AM 18.5037 -77.9134 90° East  Level Estimated
09:51AM 18.5037 -77.9134 90° East  Level Estimated
09:52AM 18.5037 -77.9134 90° East  Level Estimated
09:53AM 18.5037 -77.9134 90° East  Level Estimated
09:54AM 18.5037 -77.9134 90° East  Level Estimated
09:55AM 18.5037 -77.9134 90° East  Level Estimated
09:56AM 18.5037 -77.9134 90° East  Level Estimated
09:57AM 18.5037 -77.9134 90° East  Level Estimated
09:58AM 18.5037 -77.9134 90° East  Level Estimated
09:59AM 18.5037 -77.9134 90° East  Level Estimated
10:00AM 18.5037 -77.9134 90° East  Level Estimated
10:01AM 18.5037 -77.9134 90° East  Level Estimated
10:02AM 18.5037 -77.9134 90° East  Level Estimated
10:03AM 18.5037 -77.9134 90° East  Level Estimated
10:04AM 18.5037 -77.9134 90° East  Level Estimated
10:05AM 18.5037 -77.9134 90° East  Level Estimated